Time;durP1;ratioP1;P1;durP2;ratioP2;P2;SDS_P1;SDS_P2;PMS_P1;PMS_P2;Temp;Humidity;BMP_temperature;BMP_pressure;BME280_temperature;BME280_humidity;BME280_pressure;Samples;Min_cycle;Max_cycle;Signal;HPM_P1;HPM_P2
2021/06/06 00:02:09;;;;;;;7.50;2.30;;;13.70;99.90;;;;;;5037690;28;20055;-80
2021/06/06 00:04:39;;;;;;;8.68;2.50;;;13.70;99.90;;;;;;5036345;28;20022;-80
2021/06/06 00:07:05;;;;;;;5.18;2.92;;;13.60;99.90;;;;;;5038952;28;20116;-80
2021/06/06 00:09:30;;;;;;;5.75;2.58;;;13.60;99.90;;;;;;5044583;28;20089;-80
2021/06/06 00:11:56;;;;;;;7.85;2.70;;;13.50;99.90;;;;;;5036965;28;20145;-80
2021/06/06 00:14:28;;;;;;;6.88;2.67;;;13.60;99.90;;;;;;5039743;28;20044;-80
2021/06/06 00:16:59;;;;;;;5.65;2.72;;;13.50;99.90;;;;;;5040081;28;20464;-80
2021/06/06 00:19:26;;;;;;;8.10;2.75;;;13.50;99.90;;;;;;5037424;28;20117;-80
2021/06/06 00:21:54;;;;;;;6.45;2.53;;;13.50;99.90;;;;;;5033525;28;20065;-80
2021/06/06 00:24:24;;;;;;;5.15;2.70;;;13.50;99.90;;;;;;5042272;28;20040;-80
2021/06/06 00:26:50;;;;;;;9.75;2.58;;;13.40;99.90;;;;;;5031689;28;20499;-80
2021/06/06 00:29:16;;;;;;;11.57;2.47;;;13.40;99.90;;;;;;5037595;28;20029;-79
2021/06/06 00:31:42;;;;;;;8.55;2.60;;;13.30;99.90;;;;;;5041175;28;20030;-80
2021/06/06 00:34:07;;;;;;;9.65;2.85;;;13.30;99.90;;;;;;5037343;28;20025;-81
2021/06/06 00:36:33;;;;;;;9.20;2.90;;;13.30;99.90;;;;;;5033000;28;20029;-80
2021/06/06 00:39:00;;;;;;;12.45;2.40;;;13.30;99.90;;;;;;5042155;28;20022;-80
2021/06/06 00:41:27;;;;;;;7.75;2.58;;;13.30;99.90;;;;;;5041495;28;20050;-80
2021/06/06 00:43:54;;;;;;;13.15;2.65;;;13.30;99.90;;;;;;5034084;28;20025;-80
2021/06/06 00:46:22;;;;;;;12.13;2.97;;;13.30;99.90;;;;;;5041941;28;20033;-80
2021/06/06 00:48:48;;;;;;;8.70;2.90;;;13.20;99.90;;;;;;5043801;28;20026;-79
2021/06/06 00:51:33;;;;;;;7.20;2.80;;;13.30;99.90;;;;;;5040002;28;20399;-80
2021/06/06 00:54:09;;;;;;;4.03;2.50;;;13.30;99.90;;;;;;5038163;28;20026;-79
2021/06/06 00:56:35;;;;;;;5.22;2.83;;;13.20;99.90;;;;;;5031276;28;20590;-80
2021/06/06 00:59:02;;;;;;;5.95;2.47;;;13.30;99.90;;;;;;5038924;28;20021;-80
2021/06/06 01:01:28;;;;;;;8.75;3.70;;;13.30;99.90;;;;;;5039347;28;20028;-80
2021/06/06 01:03:56;;;;;;;4.65;2.70;;;13.30;99.90;;;;;;5034910;28;20097;-80
2021/06/06 01:06:35;;;;;;;14.57;3.15;;;13.30;99.90;;;;;;5031331;28;20435;-80
2021/06/06 01:09:05;;;;;;;13.77;3.53;;;13.20;99.90;;;;;;5024115;28;20040;-80
2021/06/06 01:11:53;;;;;;;9.23;3.05;;;13.10;99.90;;;;;;5031243;28;20502;-80
2021/06/06 01:14:29;;;;;;;9.35;3.22;;;13.10;99.90;;;;;;5035221;28;20032;-80
2021/06/06 01:17:19;;;;;;;5.65;2.95;;;13.10;99.90;;;;;;5023235;28;20029;-80
2021/06/06 01:19:54;;;;;;;6.63;3.05;;;13.10;99.90;;;;;;5039439;28;20021;-80
2021/06/06 01:22:22;;;;;;;10.20;3.67;;;13.10;99.90;;;;;;5049294;28;20037;-80
2021/06/06 01:24:55;;;;;;;6.65;3.28;;;13.10;99.90;;;;;;5031715;28;20035;-80
2021/06/06 01:27:26;;;;;;;12.35;3.33;;;13.10;99.90;;;;;;5039729;28;20037;-80
2021/06/06 01:30:10;;;;;;;8.40;3.33;;;13.10;99.90;;;;;;5032227;28;20033;-80
2021/06/06 01:32:45;;;;;;;5.97;2.65;;;13.00;99.90;;;;;;5034562;28;20076;-80
2021/06/06 01:35:26;;;;;;;6.40;3.50;;;13.00;99.90;;;;;;5034459;28;20100;-80
2021/06/06 01:38:02;;;;;;;8.82;3.20;;;12.90;99.90;;;;;;5043285;28;20079;-80
2021/06/06 01:40:30;;;;;;;8.13;2.90;;;12.90;99.90;;;;;;5044693;28;20044;-80
2021/06/06 01:43:01;;;;;;;7.72;3.60;;;12.80;99.90;;;;;;5030458;28;20083;-81
2021/06/06 01:45:35;;;;;;;7.68;3.63;;;12.80;99.90;;;;;;5032850;28;20026;-80
2021/06/06 01:48:09;;;;;;;9.50;3.45;;;12.90;99.90;;;;;;5022342;28;20128;-80
2021/06/06 01:50:49;;;;;;;7.85;3.17;;;12.80;99.90;;;;;;5032827;28;20036;-80
2021/06/06 01:53:17;;;;;;;8.73;3.20;;;12.80;99.90;;;;;;5042834;28;20508;-79
2021/06/06 01:55:49;;;;;;;11.88;4.43;;;12.80;99.90;;;;;;5041695;28;20025;-80
2021/06/06 01:58:15;;;;;;;5.70;3.60;;;12.80;99.90;;;;;;5039837;28;20471;-80
2021/06/06 02:00:46;;;;;;;8.55;3.70;;;12.80;99.90;;;;;;5033794;28;20018;-80
2021/06/06 02:03:13;;;;;;;13.93;4.05;;;12.80;99.90;;;;;;5031945;28;20056;-80
2021/06/06 02:05:40;;;;;;;8.18;3.55;;;12.80;99.90;;;;;;5037672;28;20028;-80
2021/06/06 02:08:11;;;;;;;6.38;3.50;;;12.80;99.90;;;;;;5036689;28;20037;-80
2021/06/06 02:10:45;;;;;;;6.53;3.40;;;12.70;99.90;;;;;;5041754;28;20026;-80
2021/06/06 02:13:25;;;;;;;9.70;3.28;;;12.70;99.90;;;;;;5034990;28;20036;-80
2021/06/06 02:15:56;;;;;;;6.97;3.80;;;12.70;99.90;;;;;;5030365;28;20451;-80
2021/06/06 02:18:26;;;;;;;11.40;4.03;;;12.60;99.90;;;;;;5041425;28;20045;-80
2021/06/06 02:20:52;;;;;;;12.93;4.00;;;12.60;99.90;;;;;;5036753;28;20038;-80
2021/06/06 02:23:23;;;;;;;11.23;3.92;;;12.60;99.90;;;;;;5032877;28;20080;-80
2021/06/06 02:25:57;;;;;;;9.00;4.32;;;12.60;99.90;;;;;;5036938;28;20208;-81
2021/06/06 02:28:37;;;;;;;7.03;4.30;;;12.60;99.90;;;;;;5029077;28;20121;-80
2021/06/06 02:31:18;;;;;;;9.93;4.07;;;12.60;99.90;;;;;;5036359;28;20029;-80
2021/06/06 02:34:05;;;;;;;7.65;4.45;;;12.50;99.90;;;;;;5047040;28;20029;-80
2021/06/06 02:36:33;;;;;;;15.15;4.07;;;12.50;99.90;;;;;;5036900;28;20060;-80
2021/06/06 02:39:07;;;;;;;8.20;4.13;;;12.50;99.90;;;;;;5039075;28;20100;-80
2021/06/06 02:41:51;;;;;;;7.32;4.10;;;12.50;99.90;;;;;;5034892;28;20022;-80
2021/06/06 02:44:30;;;;;;;10.63;4.50;;;12.40;99.90;;;;;;5036003;28;20022;-80
2021/06/06 02:46:59;;;;;;;12.35;4.47;;;12.40;99.90;;;;;;5044821;28;20060;-80
2021/06/06 02:49:30;;;;;;;11.90;4.50;;;12.40;99.90;;;;;;5034992;28;20100;-80
2021/06/06 02:52:38;;;;;;;9.65;4.32;;;12.30;99.90;;;;;;5044242;28;20037;-80
2021/06/06 02:55:11;;;;;;;6.80;4.53;;;12.30;99.90;;;;;;5022739;28;20523;-79
2021/06/06 02:57:38;;;;;;;;;;;12.30;99.90;;;;;;5034243;28;20116;-80
2021/06/06 03:00:16;;;;;;;10.30;4.38;;;12.30;99.90;;;;;;5039921;28;20000;-80
2021/06/06 03:02:48;;;;;;;11.73;5.13;;;12.20;99.90;;;;;;5026470;28;20076;-81
2021/06/06 03:05:17;;;;;;;9.10;5.32;;;12.20;99.90;;;;;;5035835;28;20025;-80
2021/06/06 03:07:47;;;;;;;8.30;4.35;;;12.20;99.90;;;;;;5035023;28;20029;-80
2021/06/06 03:10:17;;;;;;;17.42;5.30;;;12.20;99.90;;;;;;5036649;28;20511;-80
2021/06/06 03:12:45;;;;;;;15.35;5.20;;;12.20;99.90;;;;;;5041428;28;20033;-81
2021/06/06 03:15:13;;;;;;;8.57;4.38;;;12.10;99.90;;;;;;5033121;28;20599;-80
2021/06/06 03:17:46;;;;;;;10.70;5.22;;;12.20;99.90;;;;;;5044664;28;20059;-80
2021/06/06 03:20:19;;;;;;;14.20;5.25;;;12.20;99.90;;;;;;5038080;28;20021;-79
2021/06/06 03:22:47;;;;;;;11.27;4.68;;;12.20;99.90;;;;;;5047927;28;20037;-79
2021/06/06 03:25:20;;;;;;;9.18;5.20;;;12.20;99.90;;;;;;5023447;28;20127;-79
2021/06/06 03:27:46;;;;;;;14.13;4.83;;;12.20;99.90;;;;;;5031963;28;20037;-80
2021/06/06 03:30:15;;;;;;;10.35;5.45;;;12.20;99.90;;;;;;5034239;28;20252;-81
2021/06/06 03:32:45;;;;;;;10.25;5.30;;;12.20;99.90;;;;;;5044283;28;20492;-79
2021/06/06 03:35:12;;;;;;;10.70;4.63;;;12.10;99.90;;;;;;5035137;28;20032;-80
2021/06/06 03:37:38;;;;;;;11.73;5.20;;;12.10;99.90;;;;;;5036766;28;20039;-80
2021/06/06 03:40:07;;;;;;;11.40;5.60;;;12.20;99.90;;;;;;5033943;28;20108;-80
2021/06/06 03:42:32;;;;;;;10.77;5.43;;;12.10;99.90;;;;;;5033756;28;20029;-80
2021/06/06 03:44:58;;;;;;;11.27;5.40;;;12.10;99.90;;;;;;5036553;28;20028;-80
2021/06/06 03:47:24;;;;;;;9.55;5.55;;;12.00;99.90;;;;;;5033577;28;20439;-80
2021/06/06 03:49:50;;;;;;;12.90;6.32;;;12.00;99.90;;;;;;5036535;28;20432;-80
2021/06/06 03:52:15;;;;;;;11.70;5.60;;;12.00;99.90;;;;;;5036108;28;20035;-80
2021/06/06 03:54:41;;;;;;;11.55;5.30;;;12.00;99.90;;;;;;5036543;28;20036;-80
2021/06/06 03:57:08;;;;;;;11.55;6.05;;;12.00;99.90;;;;;;5038411;28;20400;-79
2021/06/06 03:59:34;;;;;;;9.38;5.40;;;11.90;99.90;;;;;;5041683;28;20021;-80
2021/06/06 04:02:00;;;;;;;9.98;5.68;;;11.90;99.90;;;;;;5037536;28;20048;-80
2021/06/06 04:04:25;;;;;;;13.43;5.90;;;11.90;99.90;;;;;;5036787;28;20021;-80
2021/06/06 04:06:51;;;;;;;19.15;6.15;;;11.90;99.90;;;;;;5038916;28;20041;-80
2021/06/06 04:09:17;;;;;;;10.65;5.78;;;11.90;99.90;;;;;;5041382;28;20032;-80
2021/06/06 04:11:43;;;;;;;13.77;6.10;;;12.00;99.90;;;;;;5036087;28;20036;-80
2021/06/06 04:14:09;;;;;;;14.27;5.85;;;12.00;99.90;;;;;;5048673;28;20021;-79
2021/06/06 04:16:36;;;;;;;13.63;6.10;;;12.00;99.90;;;;;;5043002;28;20131;-80
2021/06/06 04:19:04;;;;;;;14.25;5.93;;;12.00;99.90;;;;;;5037214;28;20028;-80
2021/06/06 04:21:35;;;;;;;11.75;6.20;;;12.10;99.90;;;;;;5043920;28;20073;-79
2021/06/06 04:24:00;;;;;;;13.98;6.90;;;12.10;99.90;;;;;;5038913;28;20018;-79
2021/06/06 04:26:26;;;;;;;11.43;6.20;;;12.10;99.90;;;;;;5030569;28;20040;-79
2021/06/06 04:28:53;;;;;;;11.25;6.20;;;12.10;99.90;;;;;;5036290;28;20037;-79
2021/06/06 04:31:20;;;;;;;13.70;6.30;;;12.00;99.90;;;;;;5042383;28;20403;-80
2021/06/06 04:33:46;;;;;;;11.70;5.68;;;12.10;99.90;;;;;;5041356;28;20029;-80
2021/06/06 04:36:13;;;;;;;15.90;6.68;;;12.10;99.90;;;;;;5041718;28;20450;-80
2021/06/06 04:38:39;;;;;;;14.02;6.40;;;12.10;99.90;;;;;;5030531;28;20018;-79
2021/06/06 04:41:08;;;;;;;14.30;6.43;;;12.10;99.90;;;;;;5038076;28;20029;-80
2021/06/06 04:43:34;;;;;;;17.95;6.43;;;12.10;99.90;;;;;;5031188;28;20021;-79
2021/06/06 04:46:00;;;;;;;13.35;7.18;;;12.10;99.90;;;;;;5037550;28;20032;-80
2021/06/06 04:48:33;;;;;;;13.20;6.18;;;12.10;99.90;;;;;;5038581;28;20453;-79
2021/06/06 04:51:02;;;;;;;10.85;6.18;;;12.10;99.90;;;;;;5034790;28;20112;-79
2021/06/06 04:53:28;;;;;;;14.23;6.82;;;12.10;99.90;;;;;;5032750;28;20089;-80
2021/06/06 04:55:56;;;;;;;12.40;6.85;;;12.10;99.90;;;;;;5042764;28;20025;-80
2021/06/06 04:58:24;;;;;;;13.82;6.63;;;12.20;99.90;;;;;;5034360;28;20113;-74
2021/06/06 05:00:51;;;;;;;17.52;7.07;;;12.20;99.90;;;;;;5035945;28;20021;-80
2021/06/06 05:03:18;;;;;;;11.98;6.85;;;12.20;99.90;;;;;;5035313;28;20017;-80
2021/06/06 05:05:44;;;;;;;11.98;6.60;;;12.20;99.90;;;;;;5033123;28;20113;-80
2021/06/06 05:08:11;;;;;;;13.85;6.47;;;12.30;99.90;;;;;;5034647;28;20030;-79
2021/06/06 05:10:40;;;;;;;17.70;6.22;;;12.40;99.90;;;;;;5036150;28;20112;-79
2021/06/06 05:13:06;;;;;;;13.25;6.55;;;12.40;99.90;;;;;;5038605;28;20400;-79
2021/06/06 05:15:32;;;;;;;16.20;5.90;;;12.50;99.90;;;;;;5032302;28;20033;-80
2021/06/06 05:17:58;;;;;;;13.38;6.00;;;12.60;99.90;;;;;;5042560;28;20018;-80
2021/06/06 05:20:31;;;;;;;10.20;5.88;;;12.60;99.90;;;;;;5031955;28;20049;-80
2021/06/06 05:22:57;;;;;;;11.63;5.93;;;12.70;99.90;;;;;;5032453;28;20044;-80
2021/06/06 05:25:23;;;;;;;12.18;5.70;;;12.80;99.90;;;;;;5033784;28;20068;-79
2021/06/06 05:27:49;;;;;;;11.80;5.90;;;12.80;99.90;;;;;;5031829;28;20102;-80
2021/06/06 05:30:22;;;;;;;14.93;6.07;;;12.90;99.90;;;;;;5030007;28;20076;-80
2021/06/06 05:32:48;;;;;;;;;;;13.00;99.90;;;;;;5045808;28;20489;-79
2021/06/06 05:35:15;;;;;;;11.88;5.55;;;13.10;99.90;;;;;;5040569;28;20454;-80
2021/06/06 05:37:40;;;;;;;16.08;5.95;;;13.10;99.90;;;;;;5034982;28;20038;-80
2021/06/06 05:40:07;;;;;;;13.68;6.00;;;13.20;99.90;;;;;;5040553;28;20044;-80
2021/06/06 05:42:33;;;;;;;17.08;5.93;;;13.30;99.90;;;;;;5033035;28;20032;-80
2021/06/06 05:44:59;;;;;;;15.18;5.88;;;13.40;99.90;;;;;;5034368;28;20018;-80
2021/06/06 05:47:25;;;;;;;14.80;5.38;;;13.50;99.90;;;;;;5033888;28;20033;-80
2021/06/06 05:49:50;;;;;;;11.65;6.03;;;13.50;99.90;;;;;;5032002;28;20029;-80
2021/06/06 05:52:16;;;;;;;12.80;5.32;;;13.60;99.90;;;;;;5032029;28;20112;-79
2021/06/06 05:54:42;;;;;;;11.07;5.07;;;13.70;99.90;;;;;;5030883;28;20064;-80
2021/06/06 05:57:08;;;;;;;12.15;5.63;;;13.70;99.90;;;;;;5033629;28;20033;-79
2021/06/06 05:59:34;;;;;;;9.48;5.15;;;13.90;99.90;;;;;;5038559;28;20061;-80
2021/06/06 06:01:59;;;;;;;20.10;5.53;;;14.00;99.90;;;;;;5033723;28;20030;-80
2021/06/06 06:04:25;;;;;;;12.95;4.97;;;14.10;99.90;;;;;;5034954;28;20072;-80
2021/06/06 06:06:51;;;;;;;14.25;4.78;;;14.20;99.90;;;;;;5036873;28;20104;-80
2021/06/06 06:09:16;;;;;;;11.77;4.97;;;14.20;99.90;;;;;;5040606;28;20063;-80
2021/06/06 06:11:42;;;;;;;9.63;4.38;;;14.40;99.90;;;;;;5039991;28;20060;-80
2021/06/06 06:14:08;;;;;;;9.98;4.47;;;14.50;99.90;;;;;;5050752;28;20021;-80
2021/06/06 06:16:38;;;;;;;10.18;4.45;;;14.60;99.90;;;;;;5036354;28;20029;-80
2021/06/06 06:19:06;;;;;;;12.20;4.20;;;14.70;99.90;;;;;;5037839;28;20385;-80
2021/06/06 06:21:33;;;;;;;8.65;4.07;;;14.80;99.90;;;;;;5049768;28;20060;-80
2021/06/06 06:23:59;;;;;;;10.32;3.88;;;14.90;99.90;;;;;;5042638;28;20388;-79
2021/06/06 06:26:25;;;;;;;9.57;4.10;;;15.00;99.90;;;;;;5037913;28;20047;-80
2021/06/06 06:28:51;;;;;;;10.10;4.00;;;15.10;99.90;;;;;;5052504;28;20032;-80
2021/06/06 06:31:18;;;;;;;9.13;3.65;;;15.20;99.90;;;;;;5036463;28;20039;-80
2021/06/06 06:33:44;;;;;;;8.93;3.75;;;15.40;99.90;;;;;;5042785;28;20025;-80
2021/06/06 06:36:13;;;;;;;7.50;3.85;;;15.50;99.90;;;;;;5037606;28;20033;-80
2021/06/06 06:38:39;;;;;;;7.60;3.10;;;15.60;99.90;;;;;;5041819;28;20026;-80
2021/06/06 06:41:05;;;;;;;10.02;3.50;;;15.70;99.90;;;;;;5036308;28;20025;-80
2021/06/06 06:43:31;;;;;;;7.60;3.42;;;15.80;99.90;;;;;;5033557;28;20021;-79
2021/06/06 06:45:57;;;;;;;7.90;3.60;;;15.90;99.90;;;;;;5038075;28;20087;-80
2021/06/06 06:48:25;;;;;;;9.50;3.35;;;16.00;99.90;;;;;;5037116;28;20116;-80
2021/06/06 06:50:52;;;;;;;9.43;3.45;;;16.10;99.90;;;;;;5041651;28;20025;-80
2021/06/06 06:53:19;;;;;;;7.57;3.17;;;16.20;99.90;;;;;;5051038;28;20056;-80
2021/06/06 06:55:46;;;;;;;5.72;3.13;;;16.40;99.90;;;;;;5033171;28;20083;-80
2021/06/06 06:58:11;;;;;;;7.32;3.03;;;16.50;99.90;;;;;;5036699;28;20025;-80
2021/06/06 07:00:43;;;;;;;11.68;3.35;;;16.60;99.90;;;;;;5037547;28;20539;-80
2021/06/06 07:03:10;;;;;;;5.60;2.80;;;16.80;99.90;;;;;;5036597;28;20021;-80
2021/06/06 07:05:37;;;;;;;9.45;3.08;;;16.90;99.90;;;;;;5035724;28;20026;-80
2021/06/06 07:08:11;;;;;;;6.28;3.22;;;17.10;99.90;;;;;;5034815;28;20025;-80
2021/06/06 07:10:39;;;;;;;5.65;2.78;;;17.20;99.90;;;;;;5025960;28;20483;-80
2021/06/06 07:13:06;;;;;;;7.45;3.00;;;17.40;99.90;;;;;;5040068;28;20029;-80
2021/06/06 07:15:32;;;;;;;11.00;2.97;;;17.50;99.90;;;;;;5033204;28;20536;-80
2021/06/06 07:17:57;;;;;;;7.63;2.90;;;17.70;99.90;;;;;;5041044;28;20017;-79
2021/06/06 07:20:30;;;;;;;14.70;2.90;;;17.90;99.90;;;;;;5039179;28;20032;-80
2021/06/06 07:22:57;;;;;;;5.25;2.33;;;18.10;99.90;;;;;;5044057;28;20118;-80
2021/06/06 07:25:25;;;;;;;11.82;2.67;;;18.30;99.90;;;;;;5036042;28;20048;-80
2021/06/06 07:27:53;;;;;;;6.57;2.42;;;18.40;99.90;;;;;;5034712;28;20064;-80
2021/06/06 07:30:23;;;;;;;7.78;2.45;;;19.00;99.90;;;;;;5050070;28;20028;-81
2021/06/06 07:32:50;;;;;;;6.88;2.35;;;20.70;99.90;;;;;;5033742;28;20022;-81
2021/06/06 07:35:19;;;;;;;3.88;2.20;;;23.30;97.30;;;;;;5037342;28;20029;-81
2021/06/06 07:37:44;;;;;;;4.05;2.20;;;25.20;93.80;;;;;;5037242;28;20029;-81
2021/06/06 07:40:12;;;;;;;5.93;2.13;;;26.20;90.50;;;;;;5047166;28;20036;-81
2021/06/06 07:42:38;;;;;;;3.80;1.90;;;27.30;86.50;;;;;;5032469;28;20029;-81
2021/06/06 07:45:06;;;;;;;7.45;2.20;;;27.60;81.80;;;;;;5044979;28;20025;-80
2021/06/06 07:47:32;;;;;;;4.78;2.33;;;27.80;83.30;;;;;;5033879;28;20025;-81
2021/06/06 07:49:59;;;;;;;4.03;2.05;;;28.10;79.00;;;;;;5034008;28;20029;-81
2021/06/06 07:52:24;;;;;;;5.40;2.15;;;28.30;78.50;;;;;;5040518;28;20017;-81
2021/06/06 07:54:50;;;;;;;3.47;1.90;;;28.70;76.00;;;;;;5032485;28;20494;-81
2021/06/06 07:57:16;;;;;;;5.28;2.25;;;29.50;74.00;;;;;;5037765;28;20026;-81
2021/06/06 07:59:42;;;;;;;4.45;1.73;;;30.10;70.00;;;;;;5033940;28;20025;-81
2021/06/06 08:02:08;;;;;;;4.28;1.90;;;30.50;67.80;;;;;;5033850;28;20486;-81
2021/06/06 08:04:36;;;;;;;4.13;2.15;;;31.10;64.80;;;;;;5037210;28;20402;-81
2021/06/06 08:07:02;;;;;;;3.72;1.80;;;31.90;62.90;;;;;;5043314;28;20544;-78
2021/06/06 08:09:28;;;;;;;12.50;2.55;;;31.60;60.10;;;;;;5034888;28;20407;-78
2021/06/06 08:11:53;;;;;;;2.45;2.20;;;31.40;61.70;;;;;;5037061;28;20029;-78
2021/06/06 08:14:19;;;;;;;1.70;1.60;;;32.00;57.50;;;;;;5042027;28;20400;-78
2021/06/06 08:16:45;;;;;;;3.60;2.00;;;31.90;59.30;;;;;;5042334;28;20400;-79
2021/06/06 08:19:10;;;;;;;4.80;2.17;;;32.20;57.20;;;;;;5034667;28;20472;-78
2021/06/06 08:21:41;;;;;;;7.57;2.50;;;33.00;54.90;;;;;;5036713;28;20120;-78
2021/06/06 08:24:08;;;;;;;5.47;2.00;;;33.60;52.50;;;;;;5031854;28;20477;-78
2021/06/06 08:26:34;;;;;;;3.75;2.15;;;33.00;55.00;;;;;;5030703;28;20041;-78
2021/06/06 08:29:00;;;;;;;6.25;2.03;;;33.00;53.00;;;;;;5037652;28;20455;-78
2021/06/06 08:31:29;;;;;;;2.25;2.05;;;34.10;51.20;;;;;;5037091;28;20048;-78
2021/06/06 08:33:56;;;;;;;1.90;1.70;;;34.20;48.80;;;;;;5045543;28;20028;-78
2021/06/06 08:36:32;;;;;;;3.17;2.00;;;33.20;49.40;;;;;;5047009;28;20025;-79
2021/06/06 08:38:59;;;;;;;2.60;1.85;;;33.10;50.00;;;;;;5036675;28;20082;-78
2021/06/06 08:41:29;;;;;;;4.13;2.40;;;33.50;49.70;;;;;;5031544;28;20025;-78
2021/06/06 08:44:13;;;;;;;2.20;2.00;;;33.80;49.20;;;;;;5034832;28;20509;-78
2021/06/06 08:46:59;;;;;;;3.60;2.10;;;33.90;46.30;;;;;;5029982;28;20029;-79
2021/06/06 08:49:34;;;;;;;2.97;2.28;;;34.30;47.20;;;;;;5020777;28;20390;-78
2021/06/06 08:52:23;;;;;;;3.42;2.30;;;34.50;47.40;;;;;;5036342;28;20022;-78
2021/06/06 08:55:01;;;;;;;2.58;2.10;;;34.20;47.50;;;;;;5031420;28;20452;-78
2021/06/06 08:57:46;;;;;;;2.45;2.10;;;33.90;47.00;;;;;;5030422;28;20029;-78
2021/06/06 09:00:27;;;;;;;1.98;1.88;;;34.00;46.00;;;;;;5034142;28;20029;-79
2021/06/06 09:03:01;;;;;;;2.40;1.93;;;34.30;46.00;;;;;;5032650;28;20029;-79
2021/06/06 09:05:35;;;;;;;5.05;2.20;;;34.80;46.10;;;;;;5033854;28;20448;-73
2021/06/06 09:08:02;;;;;;;2.47;2.00;;;35.40;44.20;;;;;;5044135;28;20515;-78
2021/06/06 09:10:38;;;;;;;2.15;1.98;;;34.20;41.80;;;;;;5036376;28;20404;-79
2021/06/06 09:13:08;;;;;;;3.40;2.10;;;34.60;43.40;;;;;;5038231;28;20447;-78
2021/06/06 09:15:35;;;;;;;3.38;2.30;;;34.40;42.90;;;;;;5049958;28;20490;-79
2021/06/06 09:18:19;;;;;;;1.90;1.77;;;33.90;42.50;;;;;;5036510;28;20057;-78
2021/06/06 09:20:46;;;;;;;2.15;2.03;;;34.50;44.20;;;;;;5038431;28;20530;-79
2021/06/06 09:23:12;;;;;;;2.00;1.90;;;34.10;43.10;;;;;;5031612;28;20424;-78
2021/06/06 09:25:42;;;;;;;3.22;2.33;;;34.00;42.50;;;;;;5032372;28;20038;-79
2021/06/06 09:28:13;;;;;;;1.98;1.88;;;34.00;42.10;;;;;;5046093;28;20037;-79
2021/06/06 09:30:41;;;;;;;3.63;2.07;;;34.30;41.80;;;;;;5050022;28;20025;-78
2021/06/06 09:33:19;;;;;;;2.50;2.22;;;34.70;41.80;;;;;;5042064;28;20496;-79
2021/06/06 09:35:54;;;;;;;4.18;2.13;;;34.80;41.80;;;;;;5043536;28;20024;-78
2021/06/06 09:38:36;;;;;;;2.30;2.10;;;34.70;42.60;;;;;;5031805;28;20400;-78
2021/06/06 09:41:18;;;;;;;2.17;2.08;;;34.40;41.60;;;;;;5035044;28;20037;-79
2021/06/06 09:44:16;;;;;;;2.28;2.10;;;34.60;41.70;;;;;;5045706;28;20380;-78
2021/06/06 09:46:50;;;;;;;3.47;2.38;;;34.10;41.50;;;;;;5035740;28;20037;-79
2021/06/06 09:49:33;;;;;;;2.35;2.10;;;34.00;42.30;;;;;;5038169;28;20025;-79
2021/06/06 09:52:25;;;;;;;2.58;2.33;;;34.20;42.10;;;;;;5036475;28;20021;-79
2021/06/06 09:54:53;;;;;;;5.25;2.20;;;34.40;41.10;;;;;;5052987;28;20029;-80
2021/06/06 09:57:29;;;;;;;2.92;2.10;;;34.00;41.10;;;;;;5035225;28;20087;-79
2021/06/06 10:00:11;;;;;;;2.90;2.13;;;33.80;41.20;;;;;;5035939;28;20087;-79
2021/06/06 10:02:42;;;;;;;2.60;2.40;;;35.00;43.00;;;;;;5027133;28;20026;-79
2021/06/06 10:05:31;;;;;;;4.07;2.30;;;35.10;41.80;;;;;;5036262;28;20102;-79
2021/06/06 10:08:05;;;;;;;2.47;1.60;;;35.60;42.20;;;;;;5041229;28;20028;-79
2021/06/06 10:10:36;;;;;;;2.35;2.13;;;35.80;40.90;;;;;;5034893;28;20021;-78
2021/06/06 10:13:05;;;;;;;2.05;1.95;;;35.10;41.60;;;;;;5039194;28;20029;-78
2021/06/06 10:15:50;;;;;;;2.90;2.13;;;35.40;41.70;;;;;;5035466;28;20469;-79
2021/06/06 10:18:18;;;;;;;2.00;1.90;;;34.80;41.70;;;;;;5045166;28;20022;-79
2021/06/06 10:20:48;;;;;;;1.88;1.77;;;34.90;40.70;;;;;;5040316;28;20108;-79
2021/06/06 10:23:20;;;;;;;3.35;1.90;;;34.40;41.20;;;;;;5032672;28;20073;-78
2021/06/06 10:25:57;;;;;;;2.58;2.15;;;34.30;42.20;;;;;;5037012;28;20060;-79
2021/06/06 10:28:46;;;;;;;2.45;2.25;;;34.70;40.50;;;;;;5035090;28;20040;-79
2021/06/06 10:31:31;;;;;;;2.33;2.10;;;34.60;39.90;;;;;;5033830;28;20060;-79
2021/06/06 10:34:30;;;;;;;2.55;2.20;;;34.40;40.40;;;;;;5038724;28;20028;-79
2021/06/06 10:36:56;;;;;;;1.30;1.20;;;33.70;39.10;;;;;;5027444;28;20376;-78
2021/06/06 10:39:26;;;;;;;2.97;1.80;;;30.60;42.80;;;;;;5038234;28;20455;-78
2021/06/06 10:42:16;;;;;;;2.80;1.83;;;30.70;46.20;;;;;;5034379;28;20052;-79
2021/06/06 10:45:17;;;;;;;2.17;1.85;;;32.30;41.90;;;;;;5038098;28;20365;-78
2021/06/06 10:48:00;;;;;;;2.58;1.90;;;33.40;44.80;;;;;;5049480;28;20037;-79
2021/06/06 10:50:37;;;;;;;2.70;1.90;;;34.10;42.30;;;;;;5037463;28;20025;-79
2021/06/06 10:53:29;;;;;;;2.60;1.90;;;34.40;40.90;;;;;;5039861;28;20388;-78
2021/06/06 10:56:12;;;;;;;1.92;1.80;;;34.20;40.30;;;;;;5044282;28;20033;-78
2021/06/06 10:58:49;;;;;;;3.08;1.20;;;32.80;41.60;;;;;;5035940;28;20099;-78
2021/06/06 11:01:17;;;;;;;1.27;0.90;;;31.80;41.00;;;;;;5034971;28;20033;-80
2021/06/06 11:03:49;;;;;;;2.38;1.10;;;29.40;44.60;;;;;;5046124;28;20391;-80
2021/06/06 11:06:27;;;;;;;1.27;1.10;;;27.40;48.10;;;;;;5043951;28;20026;-80
2021/06/06 11:08:54;;;;;;;2.28;1.30;;;26.90;48.90;;;;;;5035965;28;20118;-80
2021/06/06 11:11:30;;;;;;;3.55;1.45;;;27.70;47.80;;;;;;5037201;28;20029;-81
2021/06/06 11:14:07;;;;;;;1.60;1.50;;;30.10;45.10;;;;;;5041939;28;20026;-78
2021/06/06 11:17:00;;;;;;;1.85;1.75;;;31.50;45.40;;;;;;5036304;28;20040;-78
2021/06/06 11:19:30;;;;;;;1.95;1.80;;;32.50;45.20;;;;;;5034447;28;20037;-78
2021/06/06 11:22:01;;;;;;;2.53;1.80;;;33.20;44.60;;;;;;5051869;28;20049;-78
2021/06/06 11:24:27;;;;;;;2.20;1.70;;;34.10;43.50;;;;;;5040115;28;20071;-78
2021/06/06 11:27:05;;;;;;;1.98;1.67;;;33.90;42.20;;;;;;5035894;28;20121;-79
2021/06/06 11:30:27;;;;;;;3.85;1.70;;;32.90;41.60;;;;;;5036640;28;20128;-78
2021/06/06 11:33:04;;;;;;;2.00;1.80;;;33.90;43.10;;;;;;5037389;28;20075;-78
2021/06/06 11:35:40;;;;;;;1.52;1.42;;;34.00;41.30;;;;;;5038644;28;20071;-78
2021/06/06 11:38:24;;;;;;;1.55;1.15;;;32.70;43.40;;;;;;5034287;28;20029;-78
2021/06/06 11:41:03;;;;;;;3.40;2.03;;;32.30;44.80;;;;;;5045287;28;20037;-78
2021/06/06 11:43:35;;;;;;;2.38;1.80;;;31.10;44.90;;;;;;5044357;28;20074;-78
2021/06/06 11:46:31;;;;;;;1.77;1.67;;;31.60;45.00;;;;;;5036693;28;20021;-78
2021/06/06 11:49:23;;;;;;;1.95;1.48;;;32.30;44.30;;;;;;5039844;28;20021;-79
2021/06/06 11:51:50;;;;;;;1.15;1.05;;;33.30;43.50;;;;;;5037517;28;20032;-78
2021/06/06 11:54:58;;;;;;;2.47;1.30;;;31.50;44.50;;;;;;5046393;28;20017;-78
2021/06/06 11:57:29;;;;;;;3.17;1.35;;;30.60;45.80;;;;;;5017121;28;20032;-78
2021/06/06 12:00:03;;;;;;;5.13;1.45;;;30.60;48.70;;;;;;5018199;28;20026;-78
2021/06/06 12:02:32;;;;;;;3.90;1.23;;;30.90;46.60;;;;;;5018398;28;20045;-80
2021/06/06 12:05:14;;;;;;;2.85;1.10;;;30.50;47.50;;;;;;5018117;28;20061;-78
2021/06/06 12:07:43;;;;;;;1.58;1.20;;;29.30;48.00;;;;;;5023422;28;20542;-80
2021/06/06 12:10:24;;;;;;;2.90;1.40;;;29.60;49.80;;;;;;5012929;28;20029;-80
2021/06/06 12:12:55;;;;;;;1.65;1.55;;;30.60;47.00;;;;;;5018532;28;20028;-81
2021/06/06 12:15:23;;;;;;;3.60;1.52;;;30.90;47.10;;;;;;4998113;28;20061;-78
2021/06/06 12:18:00;;;;;;;2.60;1.40;;;32.00;46.70;;;;;;5014461;28;20034;-78
2021/06/06 12:20:26;;;;;;;3.45;1.60;;;32.40;47.10;;;;;;5017025;28;20025;-78
2021/06/06 12:23:07;;;;;;;2.47;1.58;;;30.60;46.80;;;;;;4998540;28;20046;-81
2021/06/06 12:25:35;;;;;;;2.83;1.50;;;29.20;49.90;;;;;;5024010;28;20101;-80
2021/06/06 12:28:15;;;;;;;2.15;1.33;;;28.20;51.30;;;;;;5034653;28;20489;-81
2021/06/06 12:30:46;;;;;;;5.45;1.40;;;27.20;52.80;;;;;;5038941;28;20041;-80
2021/06/06 12:33:12;;;;;;;2.67;1.48;;;26.70;53.70;;;;;;5037080;28;20037;-81
2021/06/06 12:35:52;;;;;;;1.50;1.13;;;26.00;54.90;;;;;;5046874;28;20036;-80
2021/06/06 12:38:21;;;;;;;3.75;1.48;;;26.10;55.40;;;;;;5030018;28;20060;-80
2021/06/06 12:40:48;;;;;;;4.50;1.92;;;25.50;56.20;;;;;;5036522;28;20025;-80
2021/06/06 12:43:17;;;;;;;4.80;2.03;;;25.30;58.20;;;;;;5035434;28;20026;-80
2021/06/06 12:45:46;;;;;;;4.22;1.80;;;25.10;57.10;;;;;;5044298;28;20029;-80
2021/06/06 12:48:14;;;;;;;5.88;1.70;;;26.20;56.80;;;;;;5031405;28;20025;-80
2021/06/06 12:50:42;;;;;;;4.72;2.00;;;27.20;54.70;;;;;;5034525;28;20025;-81
2021/06/06 12:53:20;;;;;;;2.75;1.73;;;28.30;52.90;;;;;;5032731;28;20033;-80
2021/06/06 12:55:47;;;;;;;2.72;1.60;;;28.60;53.30;;;;;;5030216;28;20057;-80
2021/06/06 12:58:15;;;;;;;6.10;1.80;;;29.00;51.30;;;;;;5033621;28;20034;-80
2021/06/06 13:00:47;;;;;;;2.40;1.80;;;29.80;51.30;;;;;;5036157;28;20104;-80
2021/06/06 13:03:18;;;;;;;2.78;1.52;;;29.40;49.50;;;;;;5034836;28;20014;-80
2021/06/06 13:05:47;;;;;;;6.47;1.70;;;29.00;51.70;;;;;;5034499;28;20025;-80